Time;durP1;ratioP1;P1;durP2;ratioP2;P2;SDS_P1;SDS_P2;PMS_P1;PMS_P2;Temp;Humidity;BMP_temperature;BMP_pressure;BME280_temperature;BME280_humidity;BME280_pressure;Samples;Min_cycle;Max_cycle;Signal;HPM_P1;HPM_P2
2024/03/10 00:01:10;;;;;;;16.42;14.43;;;;;;;30.14;66.47;101222.91;5059597;28;69739;-30
2024/03/10 00:03:40;;;;;;;21.95;15.13;;;;;;;30.17;66.03;101227.94;5059795;28;66393;-31
2024/03/10 00:06:11;;;;;;;18.60;14.90;;;;;;;30.19;66.25;101231.25;5056459;28;70394;-32
2024/03/10 00:08:43;;;;;;;19.35;14.23;;;;;;;30.22;66.77;101236.25;5058732;28;67130;-31
2024/03/10 00:11:17;;;;;;;19.20;15.30;;;;;;;30.22;66.71;101233.56;5058532;28;69254;-30
2024/03/10 00:13:48;;;;;;;17.63;15.35;;;;;;;30.24;66.68;101239.59;5046690;28;66742;-30
2024/03/10 00:16:19;;;;;;;20.23;15.93;;;;;;;30.18;67.36;101223.34;5057576;28;69794;-32
2024/03/10 00:18:50;;;;;;;18.25;15.30;;;;;;;30.27;66.91;101241.88;5058616;28;66608;-32
2024/03/10 00:21:20;;;;;;;17.58;15.70;;;;;;;30.30;66.89;101251.47;5044245;28;70379;-32
2024/03/10 00:23:51;;;;;;;25.83;16.30;;;;;;;30.32;67.39;101251.28;5056557;28;66287;-31
2024/03/10 00:26:22;;;;;;;24.55;15.30;;;;;;;30.33;67.40;101252.94;5059345;28;69868;-31
2024/03/10 00:28:53;;;;;;;17.65;15.80;;;;;;;30.36;68.41;101257.91;5059220;28;67066;-32
2024/03/10 00:31:24;;;;;;;19.75;16.23;;;;;;;30.37;67.45;101260.44;5048042;28;70231;-31
2024/03/10 00:33:55;;;;;;;17.67;15.77;;;;;;;30.37;67.35;101256.88;5056863;28;66320;-31
2024/03/10 00:36:25;;;;;;;20.23;15.98;;;;;;;30.41;68.02;101258.97;5057372;28;70020;-31
2024/03/10 00:38:55;;;;;;;16.60;14.93;;;;;;;30.43;67.96;101265.00;5052634;28;66491;-30
2024/03/10 00:41:26;;;;;;;19.85;15.18;;;;;;;30.46;67.72;101269.19;5058166;28;70126;-30
2024/03/10 00:43:57;;;;;;;19.35;15.02;;;;;;;30.44;68.18;101271.25;5054643;28;66656;-31
2024/03/10 00:46:28;;;;;;;23.83;15.50;;;;;;;30.46;68.35;101275.41;5058056;28;69857;-36
2024/03/10 00:48:59;;;;;;;17.60;15.20;;;;;;;30.46;67.95;101280.00;5057378;28;66606;-31
2024/03/10 00:51:29;;;;;;;19.75;15.90;;;;;;;30.51;68.22;101299.16;5057639;28;70072;-31
2024/03/10 00:54:00;;;;;;;16.77;15.05;;;;;;;30.51;67.68;101296.47;5058864;28;66903;-31
2024/03/10 00:56:31;;;;;;;22.55;15.75;;;;;;;30.54;68.44;101301.47;5050528;28;70282;-31
2024/03/10 00:59:02;;;;;;;32.00;16.33;;;;;;;30.49;69.80;101312.06;5057726;28;67974;-31
2024/03/10 01:01:32;;;;;;;30.85;15.73;;;;;;;30.54;69.15;101304.16;5058403;28;69034;-32
2024/03/10 01:04:03;;;;;;;21.27;15.13;;;;;;;30.55;69.68;101305.81;5056190;28;66917;-30
2024/03/10 01:06:34;;;;;;;25.02;14.63;;;;;;;30.54;70.30;101306.88;5058378;28;70172;-31
2024/03/10 01:09:08;;;;;;;25.30;15.93;;;;;;;30.55;70.00;101322.06;5056912;28;67432;-31
2024/03/10 01:11:42;;;;;;;24.05;15.30;;;;;;;30.56;70.38;101314.78;5055575;28;69578;-31
2024/03/10 01:14:14;;;;;;;18.17;15.38;;;;;;;30.57;70.29;101330.81;5052057;28;67763;-31
2024/03/10 01:16:45;;;;;;;19.08;15.43;;;;;;;30.58;70.43;101329.78;5052088;28;70834;-35
2024/03/10 01:19:16;;;;;;;20.63;16.40;;;;;;;30.61;69.90;101332.06;5054856;28;65662;-32
2024/03/10 01:21:47;;;;;;;22.15;17.45;;;;;;;30.61;70.14;101332.06;5056848;28;70416;-32
2024/03/10 01:24:18;;;;;;;24.45;17.67;;;;;;;30.64;69.72;101337.06;5053144;28;66260;-31
2024/03/10 01:26:49;;;;;;;26.73;19.40;;;;;;;30.63;69.66;101329.97;5056531;28;71380;-33
2024/03/10 01:29:22;;;;;;;29.00;21.52;;;;;;;30.61;70.76;101334.75;5057283;28;66157;-32
2024/03/10 01:31:53;;;;;;;26.55;21.58;;;;;;;30.64;69.49;101341.66;5056621;28;70046;-31
2024/03/10 01:34:23;;;;;;;31.30;22.23;;;;;;;30.65;69.29;101335.22;5058302;28;66408;-31
2024/03/10 01:36:54;;;;;;;29.38;21.95;;;;;;;30.68;68.61;101341.03;5057345;28;70137;-31
2024/03/10 01:39:25;;;;;;;30.88;21.85;;;;;;;30.73;68.39;101340.41;5056633;28;66041;-31
2024/03/10 01:41:57;;;;;;;32.35;21.08;;;;;;;30.77;68.50;101335.41;5056425;28;70479;-32
2024/03/10 01:44:28;;;;;;;;;;;;;;;30.65;70.39;101344.16;5058105;28;66025;-31
2024/03/10 01:47:00;;;;;;;31.38;20.10;;;;;;;30.77;68.79;101341.66;5049406;28;70613;-31
2024/03/10 01:49:33;;;;;;;26.67;20.15;;;;;;;30.80;68.49;101343.16;5058127;28;66412;-31
2024/03/10 01:52:04;;;;;;;30.10;20.02;;;;;;;30.81;68.82;101347.50;5058168;28;70961;-31
2024/03/10 01:54:37;;;;;;;22.05;19.42;;;;;;;30.86;68.75;101340.41;5058353;28;66494;-32
2024/03/10 01:57:09;;;;;;;30.30;19.95;;;;;;;30.87;69.18;101352.94;5058561;28;70817;-32
2024/03/10 01:59:40;;;;;;;24.92;19.55;;;;;;;30.92;68.82;101360.41;5050814;28;65907;-32
2024/03/10 02:02:11;;;;;;;27.02;19.02;;;;;;;30.92;69.15;101350.44;5058617;28;71137;-32
2024/03/10 02:04:45;;;;;;;26.45;19.02;;;;;;;30.97;69.42;101352.50;5054721;28;65620;-33
2024/03/10 02:07:16;;;;;;;27.43;19.47;;;;;;;30.94;69.68;101358.34;5056110;28;69103;-33
2024/03/10 02:09:47;;;;;;;26.75;18.30;;;;;;;30.96;69.54;101350.84;5057074;28;66267;-31
2024/03/10 02:12:18;;;;;;;26.15;20.00;;;;;;;31.03;69.67;101350.81;5050102;28;69995;-32
2024/03/10 02:15:02;;;;;;;24.37;19.77;;;;;;;31.01;71.26;101364.59;5049373;28;66681;-33
2024/03/10 02:17:36;;;;;;;25.55;19.88;;;;;;;31.01;69.80;101348.34;5054108;28;69995;-32
2024/03/10 02:20:19;;;;;;;20.67;18.33;;;;;;;31.08;69.45;101356.47;5054408;28;65994;-32
2024/03/10 02:22:51;;;;;;;25.10;19.40;;;;;;;31.10;69.26;101363.34;5049479;28;69630;-32
2024/03/10 02:25:34;;;;;;;25.70;19.47;;;;;;;31.10;69.72;101374.16;5053415;28;66684;-32
2024/03/10 02:28:09;;;;;;;27.38;20.17;;;;;;;31.12;70.06;101371.22;5056276;28;69445;-32
2024/03/10 02:30:56;;;;;;;22.77;19.75;;;;;;;30.94;70.64;101336.66;5055181;28;66383;-31
2024/03/10 02:47:31;;;;;;;20.58;17.92;;;;;;;31.32;69.20;101354.97;5049909;28;65981;-31
2024/03/10 02:50:02;;;;;;;27.20;20.05;;;;;;;31.31;69.34;101358.69;5057152;28;70070;-32
2024/03/10 02:52:34;;;;;;;21.67;18.17;;;;;;;31.34;69.82;101352.84;5056223;28;65991;-33
2024/03/10 02:55:06;;;;;;;23.23;19.38;;;;;;;31.37;69.84;101347.03;5057177;28;69022;-32
2024/03/10 02:57:38;;;;;;;22.10;18.77;;;;;;;31.40;69.49;101357.47;5058611;28;66675;-33
2024/03/10 03:00:13;;;;;;;21.70;18.83;;;;;;;31.43;69.24;101351.63;5060485;28;70219;-35
2024/03/10 03:02:44;;;;;;;24.70;18.73;;;;;;;31.44;69.37;101352.47;5059430;28;66290;-33
2024/03/10 03:05:18;;;;;;;28.65;19.80;;;;;;;31.45;69.37;101337.84;5059770;28;70018;-36
2024/03/10 03:07:49;;;;;;;28.13;19.73;;;;;;;31.53;69.46;101346.56;5047690;28;66606;-34
2024/03/10 03:10:20;;;;;;;26.02;18.80;;;;;;;31.56;69.44;101342.59;5054234;28;69956;-36
2024/03/10 03:12:53;;;;;;;31.25;19.35;;;;;;;31.59;69.86;101345.75;5052904;28;67043;-35
2024/03/10 03:15:23;;;;;;;35.05;20.20;;;;;;;31.64;69.34;101336.13;5060960;28;69870;-32
2024/03/10 03:17:54;;;;;;;49.72;22.27;;;;;;;31.69;68.11;101329.00;5058827;28;65420;-33
2024/03/10 03:20:26;;;;;;;48.15;22.67;;;;;;;31.75;67.89;101322.69;5052141;28;69376;-32
2024/03/10 03:22:57;;;;;;;;;;;;;;;31.66;68.02;101324.00;5061068;28;66550;-31
2024/03/10 03:25:28;;;;;;;41.38;23.38;;;;;;;31.85;67.18;101318.72;5059175;28;70050;-32
2024/03/10 03:27:59;;;;;;;36.67;23.55;;;;;;;31.89;66.65;101315.34;5056345;28;66635;-33
2024/03/10 03:30:31;;;;;;;49.63;25.00;;;;;;;31.89;66.75;101301.78;5060668;28;70169;-34
2024/03/10 03:33:02;;;;;;;46.65;24.73;;;;;;;31.97;66.38;101301.53;5059546;28;66448;-34
2024/03/10 03:35:33;;;;;;;43.72;22.08;;;;;;;32.01;65.92;101296.50;5060145;28;69953;-34
2024/03/10 03:38:04;;;;;;;43.50;22.27;;;;;;;32.08;65.65;101288.34;5055756;28;66516;-37
2024/03/10 03:40:35;;;;;;;58.92;23.02;;;;;;;32.09;65.21;101285.41;5059920;28;69426;-34
2024/03/10 03:43:06;;;;;;;51.47;21.83;;;;;;;32.18;64.89;101280.53;5059881;28;65115;-39
2024/03/10 03:45:37;;;;;;;47.95;21.20;;;;;;;32.17;64.00;101290.56;5047192;28;69101;-34
2024/03/10 03:48:07;;;;;;;37.73;20.80;;;;;;;32.17;64.06;101277.00;5061064;28;66596;-32
2024/03/10 03:50:39;;;;;;;47.33;21.85;;;;;;;32.24;63.55;101277.78;5058917;28;69222;-32
2024/03/10 03:53:10;;;;;;;;;;;;;;;32.17;62.85;101259.88;5058850;28;66625;-32
2024/03/10 03:55:41;;;;;;;37.22;22.27;;;;;;;32.32;63.08;101257.69;5058194;28;69887;-32
2024/03/10 03:58:12;;;;;;;;;;;;;;;32.25;61.72;101246.84;5060316;28;65330;-32
2024/03/10 04:00:43;;;;;;;33.40;21.02;;;;;;;32.41;62.63;101242.78;5056907;28;70251;-31
2024/03/10 04:03:13;;;;;;;39.70;21.73;;;;;;;32.41;62.45;101233.81;5060540;28;65794;-31
2024/03/10 04:05:44;;;;;;;33.17;20.17;;;;;;;32.51;62.21;101238.75;5059926;28;70591;-33
2024/03/10 04:08:15;;;;;;;44.10;20.27;;;;;;;32.56;61.83;101236.19;5058246;28;66117;-32
2024/03/10 04:10:45;;;;;;;33.20;19.30;;;;;;;32.57;61.79;101232.41;5059662;28;70632;-32
2024/03/10 04:13:16;;;;;;;50.95;26.48;;;;;;;32.61;61.86;101222.78;5060680;28;66340;-33
2024/03/10 04:15:47;;;;;;;37.25;21.88;;;;;;;32.68;61.55;101226.25;5058148;28;69939;-31
2024/03/10 04:18:18;;;;;;;36.47;21.73;;;;;;;32.71;61.71;101206.81;5058481;28;66290;-33
2024/03/10 04:20:48;;;;;;;45.33;24.15;;;;;;;32.72;61.64;101197.59;5058734;28;70335;-31
2024/03/10 04:23:19;;;;;;;48.45;23.75;;;;;;;32.78;61.48;101202.13;5048658;28;67008;-31
2024/03/10 04:25:49;;;;;;;45.92;24.48;;;;;;;32.82;61.89;101208.78;5045214;28;70136;-32
2024/03/10 04:28:20;;;;;;;56.10;22.52;;;;;;;32.88;61.25;101201.59;5060304;28;66008;-30
2024/03/10 04:30:50;;;;;;;43.90;21.27;;;;;;;32.91;61.63;101184.84;5058661;28;70460;-32
2024/03/10 04:33:21;;;;;;;44.50;22.25;;;;;;;32.94;61.64;101174.34;5059745;28;66500;-32
2024/03/10 04:35:52;;;;;;;46.05;23.20;;;;;;;33.00;61.42;101177.25;5058088;28;70641;-32
2024/03/10 04:38:23;;;;;;;55.75;22.98;;;;;;;33.05;61.24;101169.25;5055021;28;66338;-32
2024/03/10 04:40:54;;;;;;;49.97;23.00;;;;;;;33.00;61.39;101156.31;5058157;28;70172;-32
2024/03/10 04:43:24;;;;;;;66.00;23.38;;;;;;;33.15;61.11;101169.50;5053885;28;65367;-32
2024/03/10 04:45:57;;;;;;;52.25;23.65;;;;;;;33.17;61.03;101161.97;5047834;28;69669;-33
2024/03/10 04:48:28;;;;;;;48.75;22.48;;;;;;;33.20;60.84;101144.38;5056886;28;66088;-34
2024/03/10 04:50:58;;;;;;;56.38;24.80;;;;;;;33.20;61.07;101150.63;5050769;28;69878;-31
2024/03/10 04:53:29;;;;;;;46.08;30.02;;;;;;;33.18;61.38;101144.59;5057402;28;66366;-31
2024/03/10 04:56:00;;;;;;;56.63;37.92;;;;;;;33.25;61.60;101137.19;5059427;28;70361;-31
2024/03/10 04:58:31;;;;;;;82.10;55.35;;;;;;;33.24;61.83;101135.53;5056974;28;66376;-33
2024/03/10 05:01:02;;;;;;;84.25;67.30;;;;;;;33.25;61.78;101131.75;5048049;28;70115;-34
2024/03/10 05:03:32;;;;;;;93.82;75.05;;;;;;;33.29;62.05;101122.06;5058128;28;65739;-32
2024/03/10 05:06:03;;;;;;;91.53;78.43;;;;;;;33.26;62.05;101117.06;5056903;28;69599;-34
2024/03/10 05:08:34;;;;;;;95.13;83.25;;;;;;;33.27;62.04;101121.47;5056603;28;65782;-31
2024/03/10 05:11:05;;;;;;;100.40;89.50;;;;;;;33.30;62.41;101122.91;5057617;28;70095;-34
2024/03/10 05:13:37;;;;;;;99.55;88.90;;;;;;;33.35;61.75;101114.88;5056507;28;66834;-32
2024/03/10 05:16:08;;;;;;;100.20;89.15;;;;;;;33.37;62.30;101099.97;5057529;28;70115;-32
2024/03/10 05:18:40;;;;;;;98.07;87.33;;;;;;;33.37;62.28;101110.84;5058101;28;66207;-33
2024/03/10 05:21:11;;;;;;;99.60;87.35;;;;;;;33.33;62.38;101092.53;5047440;28;70673;-32
2024/03/10 05:23:42;;;;;;;102.95;91.20;;;;;;;33.42;62.49;101093.84;5058095;28;65840;-31
2024/03/10 05:26:13;;;;;;;108.63;97.22;;;;;;;33.39;62.81;101097.03;5056419;28;70114;-33
2024/03/10 05:28:43;;;;;;;113.65;101.60;;;;;;;33.48;62.45;101081.19;5057675;28;66594;-33
2024/03/10 05:31:31;;;;;;;114.80;102.60;;;;;;;33.45;62.95;101084.41;5058548;28;71419;-33
2024/03/10 05:34:03;;;;;;;117.97;105.43;;;;;;;33.53;62.67;101070.50;5056364;28;66854;-32
2024/03/10 05:36:33;;;;;;;111.40;99.47;;;;;;;33.45;61.95;101062.63;5058166;28;69835;-33
2024/03/10 05:39:08;;;;;;;105.63;94.07;;;;;;;33.42;60.95;101060.38;5052130;28;65624;-32
2024/03/10 05:41:39;;;;;;;97.68;87.30;;;;;;;33.41;60.41;101053.31;5051759;28;70641;-37
2024/03/10 05:44:09;;;;;;;91.80;81.85;;;;;;;33.35;59.78;101050.44;5057772;28;65802;-31
2024/03/10 05:46:41;;;;;;;86.03;77.03;;;;;;;33.32;58.56;101034.59;5056106;28;70760;-33
2024/03/10 05:49:12;;;;;;;84.65;75.40;;;;;;;33.32;58.82;101040.03;5058910;28;65782;-32
2024/03/10 05:51:49;;;;;;;84.10;74.93;;;;;;;33.30;58.43;101020.41;5057643;28;69955;-36
2024/03/10 05:54:21;;;;;;;80.90;71.88;;;;;;;33.27;58.28;101015.44;5056556;28;66615;-32
2024/03/10 05:56:51;;;;;;;77.75;67.10;;;;;;;33.20;57.64;101005.72;5057864;28;70253;-35
2024/03/10 05:59:23;;;;;;;74.70;63.47;;;;;;;33.28;57.91;101011.66;5058616;28;66597;-35
2024/03/10 06:01:53;;;;;;;70.43;61.88;;;;;;;33.23;57.17;101008.81;5044489;28;70673;-32
2024/03/10 06:04:24;;;;;;;65.82;57.22;;;;;;;33.24;57.40;100998.75;5057720;28;66044;-32
2024/03/10 06:06:55;;;;;;;67.70;55.47;;;;;;;33.17;57.77;101004.31;5057424;28;70082;-33
2024/03/10 06:09:34;;;;;;;59.67;53.20;;;;;;;33.22;56.73;101001.72;5057660;28;66017;-37
2024/03/10 06:12:09;;;;;;;55.88;49.78;;;;;;;32.98;57.31;100964.63;5058229;28;69769;-32
2024/03/10 06:14:40;;;;;;;66.65;47.72;;;;;;;33.10;56.84;100992.72;5056516;28;66831;-32
2024/03/10 06:17:13;;;;;;;72.43;45.00;;;;;;;33.12;57.52;100974.28;5058022;28;70197;-32
2024/03/10 06:25:27;;;;;;;51.47;38.03;;;;;;;33.05;56.36;100951.81;5060205;28;66182;-33
2024/03/10 06:27:58;;;;;;;49.20;36.22;;;;;;;33.03;56.22;100954.75;5060567;28;70123;-36
2024/03/10 06:30:28;;;;;;;49.97;34.97;;;;;;;33.08;56.05;100951.34;5061655;28;66682;-32
2024/03/10 06:32:59;;;;;;;43.17;31.55;;;;;;;33.08;55.97;100943.19;5061717;28;70790;-32
2024/03/10 06:35:32;;;;;;;39.83;31.50;;;;;;;32.96;55.68;100929.56;5062147;28;66618;-32
2024/03/10 06:38:03;;;;;;;36.47;29.10;;;;;;;33.07;55.85;100942.38;5058395;28;70816;-31
2024/03/10 06:40:33;;;;;;;31.58;28.27;;;;;;;33.06;55.66;100937.16;5054432;28;65268;-36
2024/03/10 06:43:05;;;;;;;31.17;27.98;;;;;;;33.01;54.83;100929.69;5060777;28;70262;-37
2024/03/10 06:45:36;;;;;;;33.22;26.50;;;;;;;33.02;55.08;100925.13;5060016;28;66555;-35
2024/03/10 06:48:13;;;;;;;29.38;26.52;;;;;;;33.00;55.49;100925.34;5060189;28;70297;-35
2024/03/10 06:50:44;;;;;;;31.02;25.10;;;;;;;33.01;55.48;100934.31;5061350;28;65537;-32
2024/03/10 06:53:17;;;;;;;26.95;24.42;;;;;;;32.94;54.62;100918.91;5060317;28;70105;-32
2024/03/10 06:55:48;;;;;;;25.90;23.27;;;;;;;32.99;55.12;100917.38;5060328;28;66121;-34
2024/03/10 06:58:19;;;;;;;25.58;23.17;;;;;;;33.08;54.88;100910.59;5060133;28;69997;-32
2024/03/10 07:00:54;;;;;;;28.50;23.38;;;;;;;33.07;54.37;100903.47;5050626;28;66596;-36
2024/03/10 07:03:25;;;;;;;22.95;20.92;;;;;;;33.08;54.31;100899.72;5060795;28;70155;-33
2024/03/10 07:06:00;;;;;;;23.20;21.10;;;;;;;33.09;54.64;100898.63;5059792;28;65429;-32
2024/03/10 07:08:31;;;;;;;21.80;19.98;;;;;;;33.07;54.40;100896.19;5061919;28;69507;-33
2024/03/10 07:11:01;;;;;;;22.02;20.30;;;;;;;33.07;54.47;100903.47;5062021;28;66782;-32
2024/03/10 07:13:33;;;;;;;21.83;19.70;;;;;;;33.10;54.95;100903.84;5058995;28;70348;-33
2024/03/10 07:16:04;;;;;;;20.80;18.73;;;;;;;33.12;54.45;100903.59;5061266;28;66549;-36
2024/03/10 07:18:37;;;;;;;;;;;;;;;32.99;53.43;100901.06;5061933;28;69630;-37
2024/03/10 07:21:07;;;;;;;19.98;17.75;;;;;;;33.06;54.27;100901.84;5060232;28;65926;-36
2024/03/10 07:23:40;;;;;;;22.03;17.83;;;;;;;33.15;54.33;100898.53;5059950;28;72037;-33
2024/03/10 07:26:11;;;;;;;18.60;17.05;;;;;;;33.13;53.96;100891.69;5059750;28;65842;-32
2024/03/10 07:28:42;;;;;;;19.15;17.65;;;;;;;33.13;54.13;100897.94;5058437;28;70731;-34
2024/03/10 07:31:12;;;;;;;17.38;15.80;;;;;;;33.22;54.40;100887.53;5059906;28;65334;-32
2024/03/10 07:33:43;;;;;;;18.13;16.02;;;;;;;33.09;54.07;100876.91;5056571;28;70573;-34
2024/03/10 07:36:13;;;;;;;16.00;14.70;;;;;;;33.18;54.21;100890.97;5057859;28;66126;-34
2024/03/10 07:38:44;;;;;;;16.73;15.13;;;;;;;33.19;54.08;100888.03;5056741;28;68934;-32
2024/03/10 07:41:15;;;;;;;16.75;15.45;;;;;;;33.15;54.19;100882.25;5049368;28;66502;-35
2024/03/10 07:43:47;;;;;;;16.73;15.20;;;;;;;33.22;54.17;100898.41;5059895;28;69235;-34
2024/03/10 07:46:18;;;;;;;15.45;14.18;;;;;;;33.30;54.01;100889.09;5060630;28;65839;-36
2024/03/10 07:48:49;;;;;;;14.60;13.27;;;;;;;33.23;53.82;100893.81;5054045;28;69498;-32
2024/03/10 07:51:20;;;;;;;14.43;13.38;;;;;;;33.30;54.02;100891.81;5056795;28;66295;-37
2024/03/10 07:53:52;;;;;;;14.30;13.38;;;;;;;33.35;54.14;100890.03;5060734;28;70003;-36
2024/03/10 07:56:24;;;;;;;14.27;13.02;;;;;;;33.36;54.06;100880.78;5058531;28;66353;-32
2024/03/10 07:58:57;;;;;;;18.67;12.52;;;;;;;33.40;54.36;100883.03;5059073;28;70061;-35
2024/03/10 08:01:29;;;;;;;23.23;12.27;;;;;;;33.44;54.19;100889.69;5058313;28;65481;-34
2024/03/10 08:04:00;;;;;;;13.95;11.90;;;;;;;33.43;54.00;100882.56;5059145;28;71118;-33
2024/03/10 08:06:31;;;;;;;13.43;12.27;;;;;;;33.45;53.98;100885.88;5057995;28;65472;-33
2024/03/10 08:09:04;;;;;;;18.08;12.10;;;;;;;33.47;54.15;100883.75;5055463;28;70410;-33
2024/03/10 08:11:35;;;;;;;13.10;11.80;;;;;;;33.49;54.18;100885.19;5057077;28;66378;-34
2024/03/10 08:14:06;;;;;;;13.60;12.20;;;;;;;33.48;53.77;100885.41;5058517;28;69573;-32
2024/03/10 08:16:37;;;;;;;12.60;11.40;;;;;;;33.35;54.40;100856.59;5049083;28;66963;-36
2024/03/10 08:19:08;;;;;;;18.20;11.60;;;;;;;33.55;54.19;100886.16;5054740;28;70921;-37
2024/03/10 08:21:38;;;;;;;13.52;11.68;;;;;;;33.59;54.16;100887.31;5048632;28;66660;-34
2024/03/10 08:24:10;;;;;;;13.25;11.00;;;;;;;33.61;54.48;100885.19;5056282;28;69378;-31
2024/03/10 08:26:40;;;;;;;12.55;10.80;;;;;;;33.57;54.09;100884.84;5052871;28;66629;-33
2024/03/10 08:29:11;;;;;;;12.38;11.32;;;;;;;33.69;54.93;100882.09;5056225;28;69368;-33
2024/03/10 08:31:42;;;;;;;18.10;12.50;;;;;;;33.85;56.21;100885.13;5055898;28;65435;-37
2024/03/10 08:34:13;;;;;;;18.58;12.70;;;;;;;33.92;56.38;100883.94;5057641;28;70302;-32
2024/03/10 08:36:44;;;;;;;15.13;12.43;;;;;;;34.05;56.84;100879.31;5055848;28;66365;-34
2024/03/10 08:39:16;;;;;;;13.63;12.52;;;;;;;34.14;57.49;100877.84;5051954;28;70721;-33
2024/03/10 08:41:48;;;;;;;14.73;13.40;;;;;;;34.24;57.33;100892.50;5058757;28;66619;-33
2024/03/10 08:44:19;;;;;;;14.90;13.40;;;;;;;34.29;57.74;100885.47;5058443;28;70011;-33
2024/03/10 08:46:50;;;;;;;16.08;12.32;;;;;;;34.36;58.04;100892.44;5058060;28;66396;-32
2024/03/10 08:49:21;;;;;;;19.02;13.15;;;;;;;34.42;58.25;100885.19;5057388;28;70845;-32
2024/03/10 08:51:52;;;;;;;16.35;12.23;;;;;;;34.47;58.23;100893.47;5057425;28;66666;-32
2024/03/10 08:54:26;;;;;;;15.15;12.55;;;;;;;34.51;58.25;100893.78;5059785;28;70225;-32
2024/03/10 08:56:59;;;;;;;14.18;12.90;;;;;;;34.57;58.75;100885.47;5060018;28;66228;-32
2024/03/10 08:59:31;;;;;;;17.47;12.77;;;;;;;34.63;58.78;100892.69;5056966;28;69925;-33
2024/03/10 09:02:03;;;;;;;14.82;12.23;;;;;;;34.65;58.94;100879.63;5054006;28;66049;-32
2024/03/10 09:04:34;;;;;;;16.47;13.17;;;;;;;34.76;59.08;100890.72;5057738;28;69567;-33
2024/03/10 09:07:05;;;;;;;14.73;12.63;;;;;;;34.78;59.08;100894.03;5053693;28;64903;-32
2024/03/10 09:09:36;;;;;;;16.90;13.40;;;;;;;34.84;59.13;100893.03;5058518;28;70791;-33
2024/03/10 09:12:07;;;;;;;15.95;12.60;;;;;;;34.87;59.20;100893.34;5059253;28;66166;-33
2024/03/10 09:14:38;;;;;;;17.38;12.52;;;;;;;34.90;59.70;100894.75;5057533;28;69758;-34
2024/03/10 09:17:10;;;;;;;15.90;13.23;;;;;;;34.94;59.40;100887.75;5059229;28;66550;-36
2024/03/10 09:19:46;;;;;;;14.02;12.73;;;;;;;34.97;59.68;100891.88;5057102;28;70258;-32
2024/03/10 09:22:17;;;;;;;21.15;12.18;;;;;;;35.00;59.26;100902.28;5059682;28;65776;-31
2024/03/10 09:24:48;;;;;;;16.95;12.30;;;;;;;35.02;59.79;100906.41;5057454;28;69821;-33
2024/03/10 09:27:19;;;;;;;14.50;12.32;;;;;;;35.06;59.53;100907.59;5057463;28;65679;-32
2024/03/10 09:29:51;;;;;;;16.30;11.80;;;;;;;35.06;59.64;100907.59;5059078;28;70131;-35
2024/03/10 09:32:26;;;;;;;;;;;;;;;35.02;59.60;100911.03;5058573;28;65733;-32
2024/03/10 09:34:57;;;;;;;12.73;11.48;;;;;;;35.17;59.58;100914.03;5056789;28;70396;-34
2024/03/10 09:37:30;;;;;;;12.80;11.60;;;;;;;35.18;59.64;100914.84;5055824;28;65710;-33
2024/03/10 09:40:01;;;;;;;13.48;11.30;;;;;;;35.20;59.01;100918.16;5058474;28;70571;-32
2024/03/10 09:42:32;;;;;;;13.83;12.07;;;;;;;35.22;59.01;100918.75;5057365;28;66872;-34
2024/03/10 09:45:05;;;;;;;13.10;11.20;;;;;;;35.21;59.11;100912.44;5058074;28;70015;-33
2024/03/10 09:47:36;;;;;;;12.50;11.20;;;;;;;35.25;59.54;100918.25;5056625;28;65269;-33
2024/03/10 09:50:08;;;;;;;18.23;10.90;;;;;;;35.31;58.88;100915.34;5058353;28;69390;-33
2024/03/10 09:52:39;;;;;;;14.43;11.73;;;;;;;35.35;59.43;100921.09;5057450;28;66089;-33
2024/03/10 09:55:11;;;;;;;11.57;10.37;;;;;;;35.34;59.08;100919.47;5043617;28;69399;-33
2024/03/10 09:57:43;;;;;;;16.42;10.63;;;;;;;35.36;58.74;100925.50;5058583;28;65338;-36
2024/03/10 10:00:14;;;;;;;14.35;10.60;;;;;;;35.37;59.38;100929.88;5056108;28;70176;-33
2024/03/10 10:02:47;;;;;;;10.45;9.45;;;;;;;35.05;59.10;100883.25;5056350;28;65402;-31
2024/03/10 10:05:32;;;;;;;10.32;9.52;;;;;;;35.36;58.96;100934.50;5057846;28;69280;-33
2024/03/10 10:08:07;;;;;;;15.52;10.40;;;;;;;35.37;59.29;100932.59;5056981;28;65428;-32
2024/03/10 10:10:43;;;;;;;10.88;9.70;;;;;;;35.31;59.43;100945.34;5057937;28;70316;-34
2024/03/10 10:13:35;;;;;;;11.38;10.18;;;;;;;35.30;59.17;100951.03;5057540;28;66634;-34
2024/03/10 10:16:10;;;;;;;11.75;9.38;;;;;;;35.36;58.91;100952.78;5055639;28;70281;-37
2024/03/10 10:18:41;;;;;;;10.85;9.55;;;;;;;35.34;58.99;100946.75;5054819;28;65394;-36
2024/03/10 10:21:27;;;;;;;10.57;9.55;;;;;;;35.10;59.47;100919.66;5057011;28;70218;-37
2024/03/10 10:24:00;;;;;;;10.80;9.00;;;;;;;35.30;59.36;100959.22;5057227;28;65289;-37
2024/03/10 10:26:31;;;;;;;13.45;9.60;;;;;;;35.28;59.37;100958.66;5057912;28;69796;-33
2024/03/10 10:29:09;;;;;;;10.32;9.35;;;;;;;35.13;59.57;100940.13;5058658;28;66161;-34
2024/03/10 10:31:40;;;;;;;10.52;9.43;;;;;;;35.28;59.76;100969.56;5056878;28;70603;-33
2024/03/10 10:34:13;;;;;;;11.20;8.83;;;;;;;35.05;59.10;100930.47;5056335;28;64497;-35
2024/03/10 10:36:47;;;;;;;10.13;9.13;;;;;;;35.21;59.87;100974.34;5054230;28;70496;-32
2024/03/10 10:39:26;;;;;;;10.93;9.17;;;;;;;35.24;59.61;100982.03;5054535;28;65682;-33
2024/03/10 10:41:58;;;;;;;12.85;9.77;;;;;;;35.19;59.36;100974.59;5055760;28;70185;-34
2024/03/10 10:44:31;;;;;;;10.95;8.95;;;;;;;35.22;59.69;100978.75;5056899;28;66303;-33
2024/03/10 10:47:02;;;;;;;9.82;8.95;;;;;;;35.18;59.70;100985.75;5049218;28;71112;-32
2024/03/10 10:49:33;;;;;;;13.80;8.63;;;;;;;35.14;59.19;100990.88;5055128;28;66426;-33
2024/03/10 10:52:05;;;;;;;9.63;8.65;;;;;;;35.17;59.06;100990.38;5056779;28;69660;-33
2024/03/10 10:54:36;;;;;;;9.70;8.90;;;;;;;35.12;59.16;100993.00;5036599;28;68040;-33
2024/03/10 10:57:09;;;;;;;12.82;9.13;;;;;;;35.08;59.11;100987.25;5056797;28;69230;-32
2024/03/10 10:59:46;;;;;;;9.52;8.57;;;;;;;34.99;59.46;100983.22;5058131;28;67016;-33
2024/03/10 11:02:41;;;;;;;9.23;8.48;;;;;;;35.04;59.21;100990.66;5057513;28;69869;-31
2024/03/10 11:05:18;;;;;;;10.32;8.35;;;;;;;34.99;59.60;101005.03;5053302;28;66625;-34
2024/03/10 11:07:49;;;;;;;10.32;9.10;;;;;;;34.97;58.90;101001.72;5054618;28;70326;-33
2024/03/10 11:10:46;;;;;;;12.73;8.97;;;;;;;34.88;58.73;100998.59;5055684;28;66447;-33
2024/03/10 11:13:17;;;;;;;9.18;8.27;;;;;;;34.89;59.18;101002.94;5050080;28;69561;-32
2024/03/10 11:16:09;;;;;;;13.27;9.23;;;;;;;34.83;59.60;101003.94;5057266;28;67107;-32
2024/03/10 11:18:43;;;;;;;11.48;8.18;;;;;;;34.85;59.06;101004.53;5058087;28;69486;-32
2024/03/10 11:21:17;;;;;;;10.23;8.77;;;;;;;34.84;59.06;101002.03;5061150;28;65865;-31
2024/03/10 11:23:50;;;;;;;11.95;8.18;;;;;;;34.78;59.60;101005.75;5061670;28;70146;-32
2024/03/10 11:26:24;;;;;;;10.82;7.85;;;;;;;34.60;59.43;100982.22;5055834;28;65568;-33
2024/03/10 11:28:59;;;;;;;10.93;8.15;;;;;;;34.66;59.34;100990.28;5057383;28;70012;-35
2024/03/10 11:31:39;;;;;;;8.65;7.95;;;;;;;34.72;59.58;101014.91;5059437;28;65497;-33
2024/03/10 11:34:10;;;;;;;9.45;8.60;;;;;;;34.72;59.30;101020.34;5053581;28;70424;-35
2024/03/10 11:36:41;;;;;;;9.70;8.48;;;;;;;34.67;59.45;101018.34;5060193;28;67077;-33
2024/03/10 11:39:19;;;;;;;10.97;8.63;;;;;;;34.64;59.38;101019.66;5059678;28;70722;-34
2024/03/10 11:41:50;;;;;;;16.02;7.65;;;;;;;34.63;59.19;101028.91;5060833;28;65983;-34
2024/03/10 11:44:23;;;;;;;13.88;8.32;;;;;;;34.60;59.42;101034.00;5057984;28;69920;-37
2024/03/10 11:46:54;;;;;;;10.82;8.52;;;;;;;34.58;59.26;101036.97;5057739;28;65862;-34
2024/03/10 11:49:26;;;;;;;8.70;7.93;;;;;;;34.54;59.40;101038.47;5057652;28;69573;-34
2024/03/10 11:51:57;;;;;;;;;;;;;;;34.42;59.18;101043.97;5058589;28;66636;-31
2024/03/10 11:54:28;;;;;;;17.43;8.20;;;;;;;34.50;59.01;101045.50;5049180;28;69650;-33